sensor_id;sensor_type;location;lat;lon;timestamp;P1;durP1;ratioP1;P2;durP2;ratioP2
70183;SDS011;57554;51.546;6.776;2023-06-14T00:01:41;10.40;;;5.22;;
70183;SDS011;57554;51.546;6.776;2023-06-14T00:04:06;8.77;;;5.53;;
70183;SDS011;57554;51.546;6.776;2023-06-14T00:06:33;10.32;;;5.43;;
70183;SDS011;57554;51.546;6.776;2023-06-14T00:08:59;11.30;;;5.78;;
70183;SDS011;57554;51.546;6.776;2023-06-14T00:11:25;8.40;;;4.82;;
70183;SDS011;57554;51.546;6.776;2023-06-14T00:13:51;10.05;;;5.07;;
70183;SDS011;57554;51.546;6.776;2023-06-14T00:16:17;10.07;;;5.07;;
70183;SDS011;57554;51.546;6.776;2023-06-14T00:18:44;10.48;;;5.30;;
70183;SDS011;57554;51.546;6.776;2023-06-14T00:21:10;8.77;;;4.93;;
70183;SDS011;57554;51.546;6.776;2023-06-14T00:23:37;13.40;;;5.28;;
70183;SDS011;57554;51.546;6.776;2023-06-14T00:26:03;10.32;;;5.28;;
70183;SDS011;57554;51.546;6.776;2023-06-14T00:28:28;10.18;;;5.53;;
70183;SDS011;57554;51.546;6.776;2023-06-14T00:30:54;9.75;;;5.18;;
70183;SDS011;57554;51.546;6.776;2023-06-14T00:33:20;9.70;;;4.80;;
70183;SDS011;57554;51.546;6.776;2023-06-14T00:35:46;11.90;;;5.00;;
70183;SDS011;57554;51.546;6.776;2023-06-14T00:38:12;10.52;;;5.20;;
70183;SDS011;57554;51.546;6.776;2023-06-14T00:40:37;10.00;;;5.03;;
70183;SDS011;57554;51.546;6.776;2023-06-14T00:43:03;9.30;;;4.88;;
70183;SDS011;57554;51.546;6.776;2023-06-14T00:45:28;10.60;;;4.90;;
70183;SDS011;57554;51.546;6.776;2023-06-14T00:47:56;10.30;;;4.63;;
70183;SDS011;57554;51.546;6.776;2023-06-14T00:50:22;8.40;;;4.35;;
70183;SDS011;57554;51.546;6.776;2023-06-14T00:52:48;8.57;;;4.45;;
70183;SDS011;57554;51.546;6.776;2023-06-14T00:55:14;11.60;;;4.65;;
70183;SDS011;57554;51.546;6.776;2023-06-14T00:57:40;9.77;;;4.65;;
70183;SDS011;57554;51.546;6.776;2023-06-14T01:00:06;10.45;;;4.85;;
70183;SDS011;57554;51.546;6.776;2023-06-14T01:02:37;11.55;;;4.80;;
70183;SDS011;57554;51.546;6.776;2023-06-14T01:05:04;9.07;;;4.72;;
70183;SDS011;57554;51.546;6.776;2023-06-14T01:10:32;11.52;;;4.32;;
70183;SDS011;57554;51.546;6.776;2023-06-14T01:13:20;8.32;;;4.38;;
70183;SDS011;57554;51.546;6.776;2023-06-14T01:15:52;9.43;;;4.38;;
70183;SDS011;57554;51.546;6.776;2023-06-14T01:18:20;9.93;;;4.55;;
70183;SDS011;57554;51.546;6.776;2023-06-14T01:20:49;11.05;;;4.85;;
70183;SDS011;57554;51.546;6.776;2023-06-14T01:23:18;9.45;;;4.00;;
70183;SDS011;57554;51.546;6.776;2023-06-14T01:25:45;8.85;;;4.38;;
70183;SDS011;57554;51.546;6.776;2023-06-14T01:28:12;8.68;;;3.95;;
70183;SDS011;57554;51.546;6.776;2023-06-14T01:30:41;8.52;;;4.30;;
70183;SDS011;57554;51.546;6.776;2023-06-14T01:33:15;7.63;;;3.65;;
70183;SDS011;57554;51.546;6.776;2023-06-14T01:35:44;9.43;;;3.88;;
70183;SDS011;57554;51.546;6.776;2023-06-14T01:38:13;7.60;;;4.07;;
70183;SDS011;57554;51.546;6.776;2023-06-14T01:40:39;10.13;;;4.78;;
70183;SDS011;57554;51.546;6.776;2023-06-14T01:43:07;7.63;;;3.90;;
70183;SDS011;57554;51.546;6.776;2023-06-14T01:45:33;8.43;;;4.28;;
70183;SDS011;57554;51.546;6.776;2023-06-14T01:48:00;9.55;;;4.20;;
70183;SDS011;57554;51.546;6.776;2023-06-14T01:50:29;10.02;;;4.13;;
70183;SDS011;57554;51.546;6.776;2023-06-14T01:52:59;11.80;;;3.90;;
70183;SDS011;57554;51.546;6.776;2023-06-14T01:55:24;8.98;;;4.40;;
70183;SDS011;57554;51.546;6.776;2023-06-14T01:57:50;8.70;;;3.60;;
70183;SDS011;57554;51.546;6.776;2023-06-14T02:00:17;15.23;;;4.20;;
70183;SDS011;57554;51.546;6.776;2023-06-14T02:02:43;8.85;;;3.88;;
70183;SDS011;57554;51.546;6.776;2023-06-14T02:05:09;7.63;;;4.00;;
70183;SDS011;57554;51.546;6.776;2023-06-14T02:07:35;9.68;;;3.97;;
70183;SDS011;57554;51.546;6.776;2023-06-14T02:10:01;6.75;;;3.42;;
70183;SDS011;57554;51.546;6.776;2023-06-14T02:12:27;9.48;;;4.00;;
70183;SDS011;57554;51.546;6.776;2023-06-14T02:14:53;8.57;;;3.80;;
70183;SDS011;57554;51.546;6.776;2023-06-14T02:17:19;13.48;;;4.45;;
70183;SDS011;57554;51.546;6.776;2023-06-14T02:19:45;11.18;;;4.43;;
70183;SDS011;57554;51.546;6.776;2023-06-14T02:22:11;10.00;;;4.03;;
70183;SDS011;57554;51.546;6.776;2023-06-14T02:24:36;11.57;;;3.78;;
70183;SDS011;57554;51.546;6.776;2023-06-14T02:27:03;8.98;;;3.78;;
70183;SDS011;57554;51.546;6.776;2023-06-14T02:29:29;8.35;;;3.55;;
70183;SDS011;57554;51.546;6.776;2023-06-14T02:31:55;7.28;;;3.58;;
70183;SDS011;57554;51.546;6.776;2023-06-14T02:34:20;11.05;;;3.60;;
70183;SDS011;57554;51.546;6.776;2023-06-14T02:36:47;9.95;;;4.10;;
70183;SDS011;57554;51.546;6.776;2023-06-14T02:39:13;7.07;;;3.30;;
70183;SDS011;57554;51.546;6.776;2023-06-14T02:41:38;8.60;;;3.65;;
70183;SDS011;57554;51.546;6.776;2023-06-14T02:44:04;7.47;;;3.40;;
70183;SDS011;57554;51.546;6.776;2023-06-14T02:46:31;7.55;;;3.13;;
70183;SDS011;57554;51.546;6.776;2023-06-14T02:48:56;8.68;;;3.67;;
70183;SDS011;57554;51.546;6.776;2023-06-14T02:51:22;7.78;;;3.45;;
70183;SDS011;57554;51.546;6.776;2023-06-14T02:53:47;9.90;;;3.72;;
70183;SDS011;57554;51.546;6.776;2023-06-14T02:56:13;6.43;;;3.55;;
70183;SDS011;57554;51.546;6.776;2023-06-14T02:58:39;9.35;;;3.80;;
70183;SDS011;57554;51.546;6.776;2023-06-14T03:01:05;9.43;;;3.40;;
70183;SDS011;57554;51.546;6.776;2023-06-14T03:03:32;8.63;;;3.42;;
70183;SDS011;57554;51.546;6.776;2023-06-14T03:05:58;9.70;;;3.38;;
70183;SDS011;57554;51.546;6.776;2023-06-14T03:08:29;21.60;;;3.67;;
70183;SDS011;57554;51.546;6.776;2023-06-14T03:11:03;8.15;;;3.72;;
70183;SDS011;57554;51.546;6.776;2023-06-14T03:13:30;9.50;;;3.55;;
70183;SDS011;57554;51.546;6.776;2023-06-14T03:15:57;8.70;;;3.55;;
70183;SDS011;57554;51.546;6.776;2023-06-14T03:18:22;10.50;;;3.50;;
70183;SDS011;57554;51.546;6.776;2023-06-14T03:20:48;11.02;;;3.90;;
70183;SDS011;57554;51.546;6.776;2023-06-14T03:23:14;8.93;;;3.45;;
70183;SDS011;57554;51.546;6.776;2023-06-14T03:25:39;8.48;;;3.33;;
70183;SDS011;57554;51.546;6.776;2023-06-14T03:28:07;7.25;;;3.47;;
70183;SDS011;57554;51.546;6.776;2023-06-14T03:30:33;11.20;;;3.72;;
70183;SDS011;57554;51.546;6.776;2023-06-14T03:32:58;6.47;;;3.13;;
70183;SDS011;57554;51.546;6.776;2023-06-14T03:35:26;6.68;;;3.10;;
70183;SDS011;57554;51.546;6.776;2023-06-14T03:37:53;8.98;;;3.20;;
70183;SDS011;57554;51.546;6.776;2023-06-14T03:40:20;7.68;;;3.30;;
70183;SDS011;57554;51.546;6.776;2023-06-14T03:42:46;9.05;;;3.20;;
70183;SDS011;57554;51.546;6.776;2023-06-14T03:45:12;12.70;;;3.30;;
70183;SDS011;57554;51.546;6.776;2023-06-14T03:47:37;5.90;;;3.05;;
70183;SDS011;57554;51.546;6.776;2023-06-14T03:50:03;11.38;;;3.40;;
70183;SDS011;57554;51.546;6.776;2023-06-14T03:52:29;7.00;;;3.38;;
70183;SDS011;57554;51.546;6.776;2023-06-14T03:54:56;7.93;;;3.10;;
70183;SDS011;57554;51.546;6.776;2023-06-14T03:57:22;8.43;;;3.00;;
70183;SDS011;57554;51.546;6.776;2023-06-14T03:59:48;8.85;;;3.22;;
70183;SDS011;57554;51.546;6.776;2023-06-14T04:02:14;9.77;;;3.40;;
70183;SDS011;57554;51.546;6.776;2023-06-14T04:04:40;7.63;;;3.42;;
70183;SDS011;57554;51.546;6.776;2023-06-14T04:07:09;6.88;;;3.50;;
70183;SDS011;57554;51.546;6.776;2023-06-14T04:09:35;7.80;;;3.20;;
70183;SDS011;57554;51.546;6.776;2023-06-14T04:12:00;11.57;;;3.50;;
70183;SDS011;57554;51.546;6.776;2023-06-14T04:14:26;8.75;;;3.30;;
70183;SDS011;57554;51.546;6.776;2023-06-14T04:16:51;8.40;;;3.58;;
70183;SDS011;57554;51.546;6.776;2023-06-14T04:19:17;7.65;;;3.33;;
70183;SDS011;57554;51.546;6.776;2023-06-14T04:21:42;8.38;;;3.40;;
70183;SDS011;57554;51.546;6.776;2023-06-14T04:24:08;8.38;;;3.35;;
70183;SDS011;57554;51.546;6.776;2023-06-14T04:26:39;6.78;;;3.35;;
70183;SDS011;57554;51.546;6.776;2023-06-14T04:29:05;7.50;;;3.50;;
70183;SDS011;57554;51.546;6.776;2023-06-14T04:31:31;6.80;;;3.17;;
70183;SDS011;57554;51.546;6.776;2023-06-14T04:34:02;8.82;;;3.05;;
70183;SDS011;57554;51.546;6.776;2023-06-14T04:36:31;7.70;;;3.30;;
70183;SDS011;57554;51.546;6.776;2023-06-14T04:38:59;10.27;;;3.15;;
70183;SDS011;57554;51.546;6.776;2023-06-14T04:41:25;9.00;;;3.25;;
70183;SDS011;57554;51.546;6.776;2023-06-14T04:43:55;6.80;;;3.22;;
70183;SDS011;57554;51.546;6.776;2023-06-14T04:46:26;7.07;;;2.83;;
70183;SDS011;57554;51.546;6.776;2023-06-14T04:48:57;10.13;;;3.20;;
70183;SDS011;57554;51.546;6.776;2023-06-14T04:51:25;6.85;;;2.50;;
70183;SDS011;57554;51.546;6.776;2023-06-14T04:53:57;8.80;;;2.95;;
70183;SDS011;57554;51.546;6.776;2023-06-14T04:56:24;10.60;;;3.20;;
70183;SDS011;57554;51.546;6.776;2023-06-14T04:58:52;13.63;;;3.40;;
70183;SDS011;57554;51.546;6.776;2023-06-14T05:01:18;8.95;;;3.30;;
70183;SDS011;57554;51.546;6.776;2023-06-14T05:03:45;6.97;;;3.15;;
70183;SDS011;57554;51.546;6.776;2023-06-14T05:06:14;9.18;;;3.38;;
70183;SDS011;57554;51.546;6.776;2023-06-14T05:08:40;8.38;;;2.95;;
70183;SDS011;57554;51.546;6.776;2023-06-14T05:11:06;8.07;;;3.22;;
70183;SDS011;57554;51.546;6.776;2023-06-14T05:13:31;7.35;;;3.00;;
70183;SDS011;57554;51.546;6.776;2023-06-14T05:15:57;6.18;;;2.97;;
70183;SDS011;57554;51.546;6.776;2023-06-14T05:18:24;6.55;;;3.00;;
70183;SDS011;57554;51.546;6.776;2023-06-14T05:20:50;7.32;;;3.13;;
70183;SDS011;57554;51.546;6.776;2023-06-14T05:23:16;7.30;;;3.05;;
70183;SDS011;57554;51.546;6.776;2023-06-14T05:25:44;6.78;;;2.80;;
70183;SDS011;57554;51.546;6.776;2023-06-14T05:28:11;8.57;;;3.28;;
70183;SDS011;57554;51.546;6.776;2023-06-14T05:30:37;7.53;;;3.10;;
70183;SDS011;57554;51.546;6.776;2023-06-14T05:33:03;7.28;;;3.17;;
70183;SDS011;57554;51.546;6.776;2023-06-14T05:35:29;12.38;;;2.95;;
70183;SDS011;57554;51.546;6.776;2023-06-14T05:37:54;8.95;;;2.95;;
70183;SDS011;57554;51.546;6.776;2023-06-14T05:40:20;7.88;;;2.80;;
70183;SDS011;57554;51.546;6.776;2023-06-14T05:42:45;8.18;;;2.95;;
70183;SDS011;57554;51.546;6.776;2023-06-14T05:45:11;7.03;;;2.95;;
70183;SDS011;57554;51.546;6.776;2023-06-14T05:47:37;6.57;;;3.03;;
70183;SDS011;57554;51.546;6.776;2023-06-14T05:50:02;5.72;;;2.63;;
70183;SDS011;57554;51.546;6.776;2023-06-14T05:52:28;7.22;;;3.28;;
70183;SDS011;57554;51.546;6.776;2023-06-14T05:54:54;6.40;;;3.00;;
70183;SDS011;57554;51.546;6.776;2023-06-14T05:57:20;9.35;;;3.28;;
70183;SDS011;57554;51.546;6.776;2023-06-14T05:59:45;8.23;;;3.17;;
70183;SDS011;57554;51.546;6.776;2023-06-14T06:02:11;6.13;;;2.95;;
70183;SDS011;57554;51.546;6.776;2023-06-14T06:04:37;7.03;;;3.08;;
70183;SDS011;57554;51.546;6.776;2023-06-14T06:07:02;7.45;;;3.10;;
70183;SDS011;57554;51.546;6.776;2023-06-14T06:09:28;7.32;;;3.08;;
70183;SDS011;57554;51.546;6.776;2023-06-14T06:11:54;8.23;;;3.15;;
70183;SDS011;57554;51.546;6.776;2023-06-14T06:14:20;8.65;;;3.03;;
70183;SDS011;57554;51.546;6.776;2023-06-14T06:16:45;7.85;;;2.80;;
70183;SDS011;57554;51.546;6.776;2023-06-14T06:19:11;7.05;;;2.70;;
70183;SDS011;57554;51.546;6.776;2023-06-14T06:21:37;7.38;;;3.05;;
70183;SDS011;57554;51.546;6.776;2023-06-14T06:24:02;9.20;;;3.00;;
70183;SDS011;57554;51.546;6.776;2023-06-14T06:26:30;7.05;;;2.95;;
70183;SDS011;57554;51.546;6.776;2023-06-14T06:28:56;12.38;;;2.65;;
70183;SDS011;57554;51.546;6.776;2023-06-14T06:31:22;9.45;;;2.70;;
70183;SDS011;57554;51.546;6.776;2023-06-14T06:33:47;6.32;;;2.80;;
70183;SDS011;57554;51.546;6.776;2023-06-14T06:36:13;7.57;;;2.70;;
70183;SDS011;57554;51.546;6.776;2023-06-14T06:38:38;6.43;;;2.40;;
70183;SDS011;57554;51.546;6.776;2023-06-14T06:41:04;7.10;;;2.55;;
70183;SDS011;57554;51.546;6.776;2023-06-14T06:43:29;8.60;;;2.50;;
70183;SDS011;57554;51.546;6.776;2023-06-14T06:45:55;5.90;;;2.30;;
70183;SDS011;57554;51.546;6.776;2023-06-14T06:48:21;6.03;;;2.25;;
70183;SDS011;57554;51.546;6.776;2023-06-14T06:50:46;7.85;;;2.05;;
70183;SDS011;57554;51.546;6.776;2023-06-14T06:53:12;5.95;;;1.90;;
70183;SDS011;57554;51.546;6.776;2023-06-14T06:55:38;5.63;;;2.15;;
70183;SDS011;57554;51.546;6.776;2023-06-14T06:58:03;5.18;;;1.90;;
70183;SDS011;57554;51.546;6.776;2023-06-14T07:00:30;7.07;;;2.10;;
70183;SDS011;57554;51.546;6.776;2023-06-14T07:02:56;5.97;;;2.20;;
70183;SDS011;57554;51.546;6.776;2023-06-14T07:05:21;6.45;;;2.17;;
70183;SDS011;57554;51.546;6.776;2023-06-14T07:07:47;10.05;;;2.08;;
70183;SDS011;57554;51.546;6.776;2023-06-14T07:10:13;4.82;;;2.10;;
70183;SDS011;57554;51.546;6.776;2023-06-14T07:12:38;7.30;;;1.85;;
70183;SDS011;57554;51.546;6.776;2023-06-14T07:15:05;8.05;;;1.92;;
70183;SDS011;57554;51.546;6.776;2023-06-14T07:17:32;5.68;;;1.90;;
70183;SDS011;57554;51.546;6.776;2023-06-14T07:19:58;6.70;;;1.65;;
70183;SDS011;57554;51.546;6.776;2023-06-14T07:22:25;6.07;;;2.05;;
70183;SDS011;57554;51.546;6.776;2023-06-14T07:24:51;6.72;;;1.95;;
70183;SDS011;57554;51.546;6.776;2023-06-14T07:27:17;5.72;;;2.28;;
70183;SDS011;57554;51.546;6.776;2023-06-14T07:29:45;6.50;;;2.03;;
70183;SDS011;57554;51.546;6.776;2023-06-14T07:32:11;6.45;;;2.08;;
70183;SDS011;57554;51.546;6.776;2023-06-14T07:34:36;7.85;;;2.20;;
70183;SDS011;57554;51.546;6.776;2023-06-14T07:37:02;5.03;;;1.90;;
70183;SDS011;57554;51.546;6.776;2023-06-14T07:39:28;6.85;;;2.17;;
70183;SDS011;57554;51.546;6.776;2023-06-14T07:41:53;7.65;;;2.10;;
70183;SDS011;57554;51.546;6.776;2023-06-14T07:44:19;7.03;;;2.10;;
70183;SDS011;57554;51.546;6.776;2023-06-14T07:46:44;5.60;;;2.03;;
70183;SDS011;57554;51.546;6.776;2023-06-14T07:49:11;8.48;;;2.22;;
70183;SDS011;57554;51.546;6.776;2023-06-14T07:51:37;4.22;;;1.80;;
70183;SDS011;57554;51.546;6.776;2023-06-14T07:54:03;5.30;;;2.15;;
70183;SDS011;57554;51.546;6.776;2023-06-14T07:56:28;7.95;;;1.98;;
70183;SDS011;57554;51.546;6.776;2023-06-14T07:58:54;6.05;;;2.13;;
70183;SDS011;57554;51.546;6.776;2023-06-14T08:01:19;7.60;;;2.10;;
70183;SDS011;57554;51.546;6.776;2023-06-14T08:03:45;6.68;;;2.10;;
70183;SDS011;57554;51.546;6.776;2023-06-14T08:06:10;4.20;;;1.75;;
70183;SDS011;57554;51.546;6.776;2023-06-14T08:08:36;7.63;;;2.33;;
70183;SDS011;57554;51.546;6.776;2023-06-14T08:11:02;5.25;;;2.10;;
70183;SDS011;57554;51.546;6.776;2023-06-14T08:13:27;6.47;;;2.08;;
70183;SDS011;57554;51.546;6.776;2023-06-14T08:15:53;11.93;;;2.17;;
70183;SDS011;57554;51.546;6.776;2023-06-14T08:18:20;6.60;;;2.33;;
70183;SDS011;57554;51.546;6.776;2023-06-14T08:20:45;6.97;;;2.30;;
70183;SDS011;57554;51.546;6.776;2023-06-14T08:23:11;7.40;;;2.25;;
70183;SDS011;57554;51.546;6.776;2023-06-14T08:25:38;6.90;;;2.15;;
70183;SDS011;57554;51.546;6.776;2023-06-14T08:28:03;7.22;;;2.20;;
70183;SDS011;57554;51.546;6.776;2023-06-14T08:30:29;5.05;;;2.17;;
70183;SDS011;57554;51.546;6.776;2023-06-14T08:32:55;8.18;;;1.70;;
70183;SDS011;57554;51.546;6.776;2023-06-14T08:35:21;5.82;;;1.95;;
70183;SDS011;57554;51.546;6.776;2023-06-14T08:37:47;6.50;;;2.55;;
70183;SDS011;57554;51.546;6.776;2023-06-14T08:40:18;8.77;;;1.83;;
70183;SDS011;57554;51.546;6.776;2023-06-14T08:42:47;5.15;;;1.90;;
70183;SDS011;57554;51.546;6.776;2023-06-14T08:45:17;6.85;;;1.80;;
70183;SDS011;57554;51.546;6.776;2023-06-14T08:47:44;6.45;;;2.10;;
70183;SDS011;57554;51.546;6.776;2023-06-14T08:50:10;5.85;;;1.92;;
70183;SDS011;57554;51.546;6.776;2023-06-14T08:52:37;7.15;;;2.00;;
70183;SDS011;57554;51.546;6.776;2023-06-14T08:55:14;6.95;;;2.10;;
70183;SDS011;57554;51.546;6.776;2023-06-14T08:57:42;4.72;;;2.15;;
70183;SDS011;57554;51.546;6.776;2023-06-14T09:00:09;8.95;;;2.28;;
70183;SDS011;57554;51.546;6.776;2023-06-14T09:02:38;5.65;;;1.70;;
70183;SDS011;57554;51.546;6.776;2023-06-14T09:05:11;4.88;;;1.80;;
70183;SDS011;57554;51.546;6.776;2023-06-14T09:07:38;7.10;;;2.00;;
70183;SDS011;57554;51.546;6.776;2023-06-14T09:10:10;5.53;;;2.13;;
70183;SDS011;57554;51.546;6.776;2023-06-14T09:15:04;6.18;;;1.67;;
70183;SDS011;57554;51.546;6.776;2023-06-14T09:17:37;4.95;;;2.05;;
70183;SDS011;57554;51.546;6.776;2023-06-14T09:20:04;4.90;;;1.60;;
70183;SDS011;57554;51.546;6.776;2023-06-14T09:22:31;4.32;;;1.80;;
70183;SDS011;57554;51.546;6.776;2023-06-14T09:25:00;4.55;;;1.95;;
70183;SDS011;57554;51.546;6.776;2023-06-14T09:27:26;7.25;;;1.67;;
70183;SDS011;57554;51.546;6.776;2023-06-14T09:29:52;5.40;;;1.83;;
70183;SDS011;57554;51.546;6.776;2023-06-14T09:32:18;5.82;;;1.52;;
70183;SDS011;57554;51.546;6.776;2023-06-14T09:34:45;5.78;;;1.65;;
70183;SDS011;57554;51.546;6.776;2023-06-14T09:37:10;6.53;;;1.65;;
70183;SDS011;57554;51.546;6.776;2023-06-14T09:39:48;6.22;;;1.70;;
70183;SDS011;57554;51.546;6.776;2023-06-14T09:42:17;4.97;;;1.58;;
70183;SDS011;57554;51.546;6.776;2023-06-14T09:44:49;4.53;;;1.60;;
70183;SDS011;57554;51.546;6.776;2023-06-14T09:47:16;5.40;;;1.33;;
70183;SDS011;57554;51.546;6.776;2023-06-14T09:49:42;4.28;;;1.50;;
70183;SDS011;57554;51.546;6.776;2023-06-14T09:52:18;4.15;;;1.27;;
70183;SDS011;57554;51.546;6.776;2023-06-14T09:54:45;7.05;;;1.90;;
70183;SDS011;57554;51.546;6.776;2023-06-14T09:57:16;6.05;;;1.20;;
70183;SDS011;57554;51.546;6.776;2023-06-14T09:59:45;17.73;;;1.42;;
70183;SDS011;57554;51.546;6.776;2023-06-14T10:05:08;5.13;;;1.52;;
70183;SDS011;57554;51.546;6.776;2023-06-14T10:07:38;6.70;;;1.40;;
70183;SDS011;57554;51.546;6.776;2023-06-14T10:10:09;5.50;;;1.23;;
70183;SDS011;57554;51.546;6.776;2023-06-14T10:12:35;9.13;;;1.20;;
70183;SDS011;57554;51.546;6.776;2023-06-14T10:15:01;4.88;;;1.30;;
70183;SDS011;57554;51.546;6.776;2023-06-14T10:17:47;4.13;;;1.10;;
70183;SDS011;57554;51.546;6.776;2023-06-14T10:20:30;4.60;;;1.02;;
70183;SDS011;57554;51.546;6.776;2023-06-14T10:23:32;2.85;;;0.90;;
70183;SDS011;57554;51.546;6.776;2023-06-14T10:26:05;6.20;;;1.15;;
70183;SDS011;57554;51.546;6.776;2023-06-14T10:28:30;3.10;;;1.00;;
70183;SDS011;57554;51.546;6.776;2023-06-14T10:31:03;5.60;;;1.00;;
70183;SDS011;57554;51.546;6.776;2023-06-14T10:33:39;3.20;;;0.82;;
70183;SDS011;57554;51.546;6.776;2023-06-14T10:36:24;4.95;;;0.90;;
70183;SDS011;57554;51.546;6.776;2023-06-14T10:39:04;5.10;;;1.00;;
70183;SDS011;57554;51.546;6.776;2023-06-14T10:41:36;4.78;;;1.10;;
70183;SDS011;57554;51.546;6.776;2023-06-14T10:46:48;3.53;;;0.80;;
70183;SDS011;57554;51.546;6.776;2023-06-14T10:49:20;6.32;;;0.80;;
70183;SDS011;57554;51.546;6.776;2023-06-14T10:52:17;2.95;;;0.85;;
70183;SDS011;57554;51.546;6.776;2023-06-14T10:57:47;4.57;;;1.00;;
70183;SDS011;57554;51.546;6.776;2023-06-14T11:00:16;3.78;;;0.88;;
70183;SDS011;57554;51.546;6.776;2023-06-14T11:05:32;4.38;;;0.98;;
70183;SDS011;57554;51.546;6.776;2023-06-14T11:11:17;3.58;;;0.90;;
70183;SDS011;57554;51.546;6.776;2023-06-14T11:13:46;5.20;;;0.90;;
70183;SDS011;57554;51.546;6.776;2023-06-14T11:16:15;5.70;;;0.90;;
70183;SDS011;57554;51.546;6.776;2023-06-14T11:18:44;8.90;;;1.00;;
70183;SDS011;57554;51.546;6.776;2023-06-14T11:21:10;4.15;;;0.90;;
70183;SDS011;57554;51.546;6.776;2023-06-14T11:23:36;4.95;;;1.00;;
70183;SDS011;57554;51.546;6.776;2023-06-14T11:26:02;2.92;;;0.90;;
70183;SDS011;57554;51.546;6.776;2023-06-14T11:28:39;6.13;;;1.10;;
70183;SDS011;57554;51.546;6.776;2023-06-14T11:31:06;7.10;;;1.05;;
70183;SDS011;57554;51.546;6.776;2023-06-14T11:33:32;6.22;;;1.10;;
70183;SDS011;57554;51.546;6.776;2023-06-14T11:35:58;3.90;;;1.40;;
70183;SDS011;57554;51.546;6.776;2023-06-14T11:38:27;4.07;;;1.20;;
70183;SDS011;57554;51.546;6.776;2023-06-14T11:40:52;4.78;;;1.23;;
70183;SDS011;57554;51.546;6.776;2023-06-14T11:43:18;3.72;;;1.13;;
70183;SDS011;57554;51.546;6.776;2023-06-14T11:45:43;5.53;;;1.35;;
70183;SDS011;57554;51.546;6.776;2023-06-14T11:48:13;4.32;;;1.10;;
70183;SDS011;57554;51.546;6.776;2023-06-14T11:50:38;6.32;;;1.20;;
70183;SDS011;57554;51.546;6.776;2023-06-14T11:53:04;5.90;;;1.40;;
70183;SDS011;57554;51.546;6.776;2023-06-14T11:55:38;5.15;;;1.30;;
70183;SDS011;57554;51.546;6.776;2023-06-14T11:58:05;4.05;;;1.20;;
70183;SDS011;57554;51.546;6.776;2023-06-14T12:00:31;4.07;;;1.33;;
70183;SDS011;57554;51.546;6.776;2023-06-14T12:02:57;7.53;;;1.35;;
70183;SDS011;57554;51.546;6.776;2023-06-14T12:05:23;3.55;;;1.10;;
70183;SDS011;57554;51.546;6.776;2023-06-14T12:07:57;4.65;;;1.13;;
70183;SDS011;57554;51.546;6.776;2023-06-14T12:10:25;4.15;;;1.30;;
70183;SDS011;57554;51.546;6.776;2023-06-14T12:12:51;6.90;;;1.20;;
70183;SDS011;57554;51.546;6.776;2023-06-14T12:15:22;4.90;;;1.40;;
70183;SDS011;57554;51.546;6.776;2023-06-14T12:17:47;4.95;;;1.10;;
70183;SDS011;57554;51.546;6.776;2023-06-14T12:20:13;5.10;;;1.40;;
70183;SDS011;57554;51.546;6.776;2023-06-14T12:22:47;6.93;;;1.40;;
70183;SDS011;57554;51.546;6.776;2023-06-14T12:25:27;3.72;;;1.10;;
70183;SDS011;57554;51.546;6.776;2023-06-14T12:27:55;3.80;;;1.30;;
70183;SDS011;57554;51.546;6.776;2023-06-14T12:30:21;5.00;;;1.15;;
70183;SDS011;57554;51.546;6.776;2023-06-14T12:32:46;4.25;;;1.20;;
70183;SDS011;57554;51.546;6.776;2023-06-14T12:35:13;5.07;;;1.48;;
70183;SDS011;57554;51.546;6.776;2023-06-14T12:37:39;4.22;;;1.40;;
70183;SDS011;57554;51.546;6.776;2023-06-14T12:40:05;5.22;;;1.40;;
70183;SDS011;57554;51.546;6.776;2023-06-14T12:42:31;5.72;;;1.40;;
70183;SDS011;57554;51.546;6.776;2023-06-14T12:44:58;5.40;;;1.60;;
70183;SDS011;57554;51.546;6.776;2023-06-14T12:47:24;4.45;;;1.60;;
70183;SDS011;57554;51.546;6.776;2023-06-14T12:49:50;4.80;;;1.48;;
70183;SDS011;57554;51.546;6.776;2023-06-14T12:52:15;5.43;;;1.50;;
70183;SDS011;57554;51.546;6.776;2023-06-14T12:54:41;4.57;;;1.60;;
70183;SDS011;57554;51.546;6.776;2023-06-14T12:57:07;5.40;;;1.40;;
70183;SDS011;57554;51.546;6.776;2023-06-14T12:59:32;4.72;;;1.50;;
70183;SDS011;57554;51.546;6.776;2023-06-14T13:02:13;5.22;;;1.63;;
70183;SDS011;57554;51.546;6.776;2023-06-14T13:07:07;5.10;;;1.55;;
70183;SDS011;57554;51.546;6.776;2023-06-14T13:09:32;5.35;;;1.70;;
70183;SDS011;57554;51.546;6.776;2023-06-14T13:11:58;4.25;;;1.42;;
70183;SDS011;57554;51.546;6.776;2023-06-14T13:14:23;8.27;;;2.60;;
70183;SDS011;57554;51.546;6.776;2023-06-14T13:16:49;4.35;;;1.67;;
70183;SDS011;57554;51.546;6.776;2023-06-14T13:19:15;5.78;;;1.85;;
70183;SDS011;57554;51.546;6.776;2023-06-14T13:21:40;4.50;;;1.42;;
70183;SDS011;57554;51.546;6.776;2023-06-14T13:24:06;5.07;;;1.50;;
70183;SDS011;57554;51.546;6.776;2023-06-14T13:26:32;6.50;;;1.95;;
70183;SDS011;57554;51.546;6.776;2023-06-14T13:28:58;6.80;;;1.98;;
70183;SDS011;57554;51.546;6.776;2023-06-14T13:31:24;5.35;;;1.65;;
70183;SDS011;57554;51.546;6.776;2023-06-14T13:33:50;4.93;;;1.77;;
70183;SDS011;57554;51.546;6.776;2023-06-14T13:36:15;7.00;;;1.95;;
70183;SDS011;57554;51.546;6.776;2023-06-14T13:38:41;6.40;;;2.00;;
70183;SDS011;57554;51.546;6.776;2023-06-14T13:41:07;5.40;;;1.77;;
70183;SDS011;57554;51.546;6.776;2023-06-14T13:43:32;9.60;;;2.60;;
70183;SDS011;57554;51.546;6.776;2023-06-14T13:45:58;4.10;;;1.77;;
70183;SDS011;57554;51.546;6.776;2023-06-14T13:48:23;4.07;;;1.63;;
70183;SDS011;57554;51.546;6.776;2023-06-14T13:50:49;9.57;;;2.10;;
70183;SDS011;57554;51.546;6.776;2023-06-14T13:53:15;8.88;;;1.63;;
70183;SDS011;57554;51.546;6.776;2023-06-14T13:55:40;4.50;;;1.80;;
70183;SDS011;57554;51.546;6.776;2023-06-14T13:58:06;5.13;;;1.73;;
70183;SDS011;57554;51.546;6.776;2023-06-14T14:00:31;4.70;;;1.70;;
70183;SDS011;57554;51.546;6.776;2023-06-14T14:02:57;4.40;;;1.65;;
70183;SDS011;57554;51.546;6.776;2023-06-14T14:05:24;6.57;;;2.08;;
70183;SDS011;57554;51.546;6.776;2023-06-14T14:07:53;4.85;;;1.92;;
70183;SDS011;57554;51.546;6.776;2023-06-14T14:10:19;6.78;;;1.90;;
70183;SDS011;57554;51.546;6.776;2023-06-14T14:12:45;5.93;;;1.90;;
70183;SDS011;57554;51.546;6.776;2023-06-14T14:15:11;4.25;;;1.90;;
70183;SDS011;57554;51.546;6.776;2023-06-14T14:17:39;6.85;;;2.00;;
70183;SDS011;57554;51.546;6.776;2023-06-14T14:20:05;7.22;;;1.92;;
70183;SDS011;57554;51.546;6.776;2023-06-14T14:22:32;8.40;;;1.92;;
70183;SDS011;57554;51.546;6.776;2023-06-14T14:24:57;4.55;;;1.90;;
70183;SDS011;57554;51.546;6.776;2023-06-14T14:27:23;6.13;;;1.83;;
70183;SDS011;57554;51.546;6.776;2023-06-14T14:29:48;5.38;;;1.90;;
70183;SDS011;57554;51.546;6.776;2023-06-14T14:32:14;7.45;;;2.30;;
70183;SDS011;57554;51.546;6.776;2023-06-14T14:34:40;5.97;;;2.20;;
70183;SDS011;57554;51.546;6.776;2023-06-14T14:37:06;9.27;;;2.28;;
70183;SDS011;57554;51.546;6.776;2023-06-14T14:39:31;7.32;;;2.38;;
70183;SDS011;57554;51.546;6.776;2023-06-14T14:41:57;5.75;;;2.00;;
70183;SDS011;57554;51.546;6.776;2023-06-14T14:44:23;7.93;;;2.30;;
70183;SDS011;57554;51.546;6.776;2023-06-14T14:46:48;4.80;;;2.28;;
70183;SDS011;57554;51.546;6.776;2023-06-14T14:49:14;8.25;;;2.15;;
70183;SDS011;57554;51.546;6.776;2023-06-14T14:51:39;5.28;;;2.20;;
70183;SDS011;57554;51.546;6.776;2023-06-14T14:54:05;6.00;;;2.13;;
70183;SDS011;57554;51.546;6.776;2023-06-14T14:56:31;5.82;;;2.03;;
70183;SDS011;57554;51.546;6.776;2023-06-14T14:58:57;8.95;;;2.42;;
70183;SDS011;57554;51.546;6.776;2023-06-14T15:01:23;4.55;;;2.10;;
70183;SDS011;57554;51.546;6.776;2023-06-14T15:03:48;6.85;;;2.08;;
70183;SDS011;57554;51.546;6.776;2023-06-14T15:06:14;6.47;;;2.10;;
70183;SDS011;57554;51.546;6.776;2023-06-14T15:08:39;5.10;;;2.15;;